sensor_id;sensor_type;location;lat;lon;timestamp;pressure;altitude;pressure_sealevel;temperature;humidity
53960;BME280;39866;48.638;-2.020;2023-02-23T00:01:19;101368.22;;;12.01;51.19
53960;BME280;39866;48.638;-2.020;2023-02-23T00:03:47;101372.09;;;11.47;52.36
53960;BME280;39866;48.638;-2.020;2023-02-23T00:06:13;101333.25;;;11.35;50.93
53960;BME280;39866;48.638;-2.020;2023-02-23T00:08:39;101367.53;;;11.93;50.87
53960;BME280;39866;48.638;-2.020;2023-02-23T00:11:07;101365.19;;;12.14;49.76
53960;BME280;39866;48.638;-2.020;2023-02-23T00:13:34;101365.91;;;11.85;50.63
53960;BME280;39866;48.638;-2.020;2023-02-23T00:16:06;101355.22;;;11.85;50.37
53960;BME280;39866;48.638;-2.020;2023-02-23T00:18:32;101355.63;;;11.67;51.13
53960;BME280;39866;48.638;-2.020;2023-02-23T00:21:19;101359.72;;;11.82;50.55
53960;BME280;39866;48.638;-2.020;2023-02-23T00:23:50;101358.91;;;11.41;52.46
53960;BME280;39866;48.638;-2.020;2023-02-23T00:26:16;101350.97;;;11.77;51.99
53960;BME280;39866;48.638;-2.020;2023-02-23T00:28:45;101346.47;;;11.40;51.87
53960;BME280;39866;48.638;-2.020;2023-02-23T00:31:11;101355.63;;;11.67;51.76
53960;BME280;39866;48.638;-2.020;2023-02-23T00:33:37;101348.56;;;12.03;51.50
53960;BME280;39866;48.638;-2.020;2023-02-23T00:36:10;101344.31;;;11.95;52.16
53960;BME280;39866;48.638;-2.020;2023-02-23T00:38:37;101334.75;;;11.86;52.41
53960;BME280;39866;48.638;-2.020;2023-02-23T00:41:06;101344.88;;;11.70;52.66
53960;BME280;39866;48.638;-2.020;2023-02-23T00:43:36;101341.22;;;11.37;52.63
53960;BME280;39866;48.638;-2.020;2023-02-23T00:46:03;101335.22;;;11.26;52.90
53960;BME280;39866;48.638;-2.020;2023-02-23T00:48:33;101342.81;;;11.84;52.58
53960;BME280;39866;48.638;-2.020;2023-02-23T00:51:01;101332.41;;;11.33;54.45
53960;BME280;39866;48.638;-2.020;2023-02-23T00:53:26;101324.41;;;11.33;55.25
53960;BME280;39866;48.638;-2.020;2023-02-23T00:55:53;101338.31;;;11.06;56.19
53960;BME280;39866;48.638;-2.020;2023-02-23T00:58:18;101345.19;;;11.18;55.10
53960;BME280;39866;48.638;-2.020;2023-02-23T01:00:44;101342.94;;;10.53;57.79
53960;BME280;39866;48.638;-2.020;2023-02-23T01:03:09;101349.81;;;10.15;60.32
53960;BME280;39866;48.638;-2.020;2023-02-23T01:05:35;101349.13;;;10.02;60.13
53960;BME280;39866;48.638;-2.020;2023-02-23T01:08:00;101355.91;;;10.25;59.95
53960;BME280;39866;48.638;-2.020;2023-02-23T01:10:25;101361.25;;;10.71;58.24
53960;BME280;39866;48.638;-2.020;2023-02-23T01:12:51;101365.16;;;10.52;57.86
53960;BME280;39866;48.638;-2.020;2023-02-23T01:15:18;101355.97;;;10.70;57.62
53960;BME280;39866;48.638;-2.020;2023-02-23T01:17:44;101351.56;;;10.67;57.54
53960;BME280;39866;48.638;-2.020;2023-02-23T01:20:11;101354.66;;;10.90;57.02
53960;BME280;39866;48.638;-2.020;2023-02-23T01:22:44;101347.59;;;10.88;56.06
53960;BME280;39866;48.638;-2.020;2023-02-23T01:25:09;101355.38;;;10.99;55.27
53960;BME280;39866;48.638;-2.020;2023-02-23T01:27:37;101357.53;;;11.23;54.39
53960;BME280;39866;48.638;-2.020;2023-02-23T01:30:03;101367.13;;;11.30;54.41
53960;BME280;39866;48.638;-2.020;2023-02-23T01:32:29;101365.25;;;11.35;54.05
53960;BME280;39866;48.638;-2.020;2023-02-23T01:34:54;101361.34;;;11.52;53.46
53960;BME280;39866;48.638;-2.020;2023-02-23T01:37:19;101361.34;;;11.52;52.89
53960;BME280;39866;48.638;-2.020;2023-02-23T01:39:45;101352.53;;;11.48;53.08
53960;BME280;39866;48.638;-2.020;2023-02-23T01:42:13;101354.84;;;11.63;52.81
53960;BME280;39866;48.638;-2.020;2023-02-23T01:47:04;101349.41;;;11.66;53.30
53960;BME280;39866;48.638;-2.020;2023-02-23T01:49:31;101349.22;;;11.74;53.13
53960;BME280;39866;48.638;-2.020;2023-02-23T01:52:08;101345.19;;;11.95;52.79
53960;BME280;39866;48.638;-2.020;2023-02-23T01:54:38;101346.06;;;11.97;52.15
53960;BME280;39866;48.638;-2.020;2023-02-23T01:57:05;101338.63;;;12.10;52.14
53960;BME280;39866;48.638;-2.020;2023-02-23T01:59:50;101330.63;;;11.71;51.59
53960;BME280;39866;48.638;-2.020;2023-02-23T02:02:21;101333.81;;;11.88;51.93
53960;BME280;39866;48.638;-2.020;2023-02-23T02:04:48;101332.84;;;11.93;51.51
53960;BME280;39866;48.638;-2.020;2023-02-23T02:07:21;101337.66;;;11.75;51.73
53960;BME280;39866;48.638;-2.020;2023-02-23T02:09:50;101340.66;;;12.00;51.89
53960;BME280;39866;48.638;-2.020;2023-02-23T02:12:54;101332.97;;;12.22;52.09
53960;BME280;39866;48.638;-2.020;2023-02-23T02:15:22;101328.38;;;12.27;51.72
53960;BME280;39866;48.638;-2.020;2023-02-23T02:26:40;101301.25;;;12.10;53.06
53960;BME280;39866;48.638;-2.020;2023-02-23T02:29:16;101302.16;;;12.09;53.35
53960;BME280;39866;48.638;-2.020;2023-02-23T02:32:11;101305.50;;;11.81;53.74
53960;BME280;39866;48.638;-2.020;2023-02-23T02:38:02;101319.19;;;11.29;54.55
53960;BME280;39866;48.638;-2.020;2023-02-23T02:43:38;101329.81;;;10.90;55.13
53960;BME280;39866;48.638;-2.020;2023-02-23T02:46:12;101328.63;;;11.02;54.76
53960;BME280;39866;48.638;-2.020;2023-02-23T02:56:49;101315.56;;;10.91;55.24
53960;BME280;39866;48.638;-2.020;2023-02-23T02:59:17;101318.13;;;10.96;55.24
53960;BME280;39866;48.638;-2.020;2023-02-23T03:02:03;101332.94;;;11.10;55.37
53960;BME280;39866;48.638;-2.020;2023-02-23T03:04:48;101305.81;;;10.90;55.21
53960;BME280;39866;48.638;-2.020;2023-02-23T03:07:52;101328.38;;;11.14;54.86
53960;BME280;39866;48.638;-2.020;2023-02-23T03:11:01;101316.88;;;11.12;54.99
53960;BME280;39866;48.638;-2.020;2023-02-23T03:16:59;101334.38;;;10.83;55.82
53960;BME280;39866;48.638;-2.020;2023-02-23T03:19:59;101331.44;;;10.51;56.33
53960;BME280;39866;48.638;-2.020;2023-02-23T03:26:06;101307.66;;;10.86;56.36
53960;BME280;39866;48.638;-2.020;2023-02-23T03:32:17;101318.78;;;11.07;55.98
53960;BME280;39866;48.638;-2.020;2023-02-23T03:35:15;101311.25;;;11.26;55.83
53960;BME280;39866;48.638;-2.020;2023-02-23T03:38:12;101309.66;;;11.19;55.73
53960;BME280;39866;48.638;-2.020;2023-02-23T03:40:58;101315.84;;;11.19;55.53
53960;BME280;39866;48.638;-2.020;2023-02-23T03:43:47;101309.50;;;11.25;55.67
53960;BME280;39866;48.638;-2.020;2023-02-23T03:46:35;101315.63;;;11.28;55.67
53960;BME280;39866;48.638;-2.020;2023-02-23T03:49:22;101302.44;;;11.22;55.69
53960;BME280;39866;48.638;-2.020;2023-02-23T03:52:15;101302.31;;;11.28;55.91
53960;BME280;39866;48.638;-2.020;2023-02-23T03:55:02;101301.00;;;11.07;56.01
53960;BME280;39866;48.638;-2.020;2023-02-23T03:57:51;101303.63;;;11.10;55.76
53960;BME280;39866;48.638;-2.020;2023-02-23T04:00:42;101309.94;;;11.05;55.77
53960;BME280;39866;48.638;-2.020;2023-02-23T04:03:30;101304.75;;;10.97;56.24
53960;BME280;39866;48.638;-2.020;2023-02-23T04:06:16;101305.88;;;10.85;56.29
53960;BME280;39866;48.638;-2.020;2023-02-23T04:09:04;101298.72;;;10.90;56.62
53960;BME280;39866;48.638;-2.020;2023-02-23T04:12:04;101309.16;;;10.56;57.14
53960;BME280;39866;48.638;-2.020;2023-02-23T04:15:03;101301.97;;;10.60;56.80
53960;BME280;39866;48.638;-2.020;2023-02-23T04:17:32;101306.16;;;10.73;56.89
53960;BME280;39866;48.638;-2.020;2023-02-23T04:19:57;101296.91;;;10.91;56.57
53960;BME280;39866;48.638;-2.020;2023-02-23T04:22:24;101312.84;;;10.93;56.61
53960;BME280;39866;48.638;-2.020;2023-02-23T04:24:49;101314.59;;;10.94;56.42
53960;BME280;39866;48.638;-2.020;2023-02-23T04:27:15;101320.84;;;10.94;56.19
53960;BME280;39866;48.638;-2.020;2023-02-23T04:29:41;101314.53;;;10.97;56.73
53960;BME280;39866;48.638;-2.020;2023-02-23T04:32:12;101320.66;;;11.02;56.48
53960;BME280;39866;48.638;-2.020;2023-02-23T04:34:37;101317.25;;;10.94;56.33
53960;BME280;39866;48.638;-2.020;2023-02-23T04:37:03;101305.88;;;10.87;56.01
53960;BME280;39866;48.638;-2.020;2023-02-23T04:39:28;101313.63;;;10.98;55.97
53960;BME280;39866;48.638;-2.020;2023-02-23T04:41:53;101312.50;;;11.09;56.09
53960;BME280;39866;48.638;-2.020;2023-02-23T04:44:19;101313.28;;;11.14;56.02
53960;BME280;39866;48.638;-2.020;2023-02-23T04:46:44;101313.28;;;11.14;56.04
53960;BME280;39866;48.638;-2.020;2023-02-23T04:49:10;101309.59;;;11.20;56.25
53960;BME280;39866;48.638;-2.020;2023-02-23T04:51:35;101300.72;;;11.20;55.93
53960;BME280;39866;48.638;-2.020;2023-02-23T04:54:02;101299.88;;;11.19;55.68
53960;BME280;39866;48.638;-2.020;2023-02-23T04:56:29;101295.06;;;11.33;55.61
53960;BME280;39866;48.638;-2.020;2023-02-23T04:58:54;101304.59;;;11.05;55.64
53960;BME280;39866;48.638;-2.020;2023-02-23T05:01:20;101302.63;;;11.14;55.99
53960;BME280;39866;48.638;-2.020;2023-02-23T05:03:48;101308.56;;;11.27;55.45
53960;BME280;39866;48.638;-2.020;2023-02-23T05:06:15;101309.38;;;11.29;55.22
53960;BME280;39866;48.638;-2.020;2023-02-23T05:08:40;101305.84;;;11.29;55.33
53960;BME280;39866;48.638;-2.020;2023-02-23T05:11:06;101301.38;;;11.31;55.57
53960;BME280;39866;48.638;-2.020;2023-02-23T05:13:32;101300.53;;;11.29;55.31
53960;BME280;39866;48.638;-2.020;2023-02-23T05:15:57;101320.97;;;11.28;55.04
53960;BME280;39866;48.638;-2.020;2023-02-23T05:18:23;101306.88;;;11.23;55.52
53960;BME280;39866;48.638;-2.020;2023-02-23T05:20:50;101297.41;;;11.08;55.41
53960;BME280;39866;48.638;-2.020;2023-02-23T05:23:15;101307.16;;;11.11;55.92
53960;BME280;39866;48.638;-2.020;2023-02-23T05:25:40;101309.34;;;10.90;55.94
53960;BME280;39866;48.638;-2.020;2023-02-23T05:28:06;101307.25;;;10.63;56.26
53960;BME280;39866;48.638;-2.020;2023-02-23T05:30:31;101308.84;;;10.72;56.50
53960;BME280;39866;48.638;-2.020;2023-02-23T05:32:57;101319.88;;;10.53;56.59
53960;BME280;39866;48.638;-2.020;2023-02-23T05:35:22;101312.63;;;10.61;56.87
53960;BME280;39866;48.638;-2.020;2023-02-23T05:37:48;101310.69;;;10.70;56.55
53960;BME280;39866;48.638;-2.020;2023-02-23T05:40:13;101309.13;;;10.58;56.59
53960;BME280;39866;48.638;-2.020;2023-02-23T05:42:39;101308.22;;;10.59;56.56
53960;BME280;39866;48.638;-2.020;2023-02-23T05:45:05;101314.47;;;10.58;56.88
53960;BME280;39866;48.638;-2.020;2023-02-23T05:47:32;101309.38;;;10.46;57.15
53960;BME280;39866;48.638;-2.020;2023-02-23T05:49:59;101312.00;;;10.47;57.19
53960;BME280;39866;48.638;-2.020;2023-02-23T05:52:25;101304.81;;;10.51;57.06
53960;BME280;39866;48.638;-2.020;2023-02-23T05:54:50;101311.81;;;10.58;56.59
53960;BME280;39866;48.638;-2.020;2023-02-23T05:57:16;101313.84;;;10.44;57.14
53960;BME280;39866;48.638;-2.020;2023-02-23T05:59:41;101308.41;;;10.50;57.38
53960;BME280;39866;48.638;-2.020;2023-02-23T06:02:06;101314.28;;;10.67;56.63
53960;BME280;39866;48.638;-2.020;2023-02-23T06:04:32;101314.28;;;10.67;56.73
53960;BME280;39866;48.638;-2.020;2023-02-23T06:06:57;101322.13;;;10.73;56.67
53960;BME280;39866;48.638;-2.020;2023-02-23T06:09:23;101319.47;;;10.73;56.76
53960;BME280;39866;48.638;-2.020;2023-02-23T06:11:48;101314.13;;;10.75;56.66
53960;BME280;39866;48.638;-2.020;2023-02-23T06:14:14;101313.97;;;10.81;56.73
53960;BME280;39866;48.638;-2.020;2023-02-23T06:16:40;101310.84;;;10.62;56.74
53960;BME280;39866;48.638;-2.020;2023-02-23T06:19:05;101310.59;;;10.73;56.84
53960;BME280;39866;48.638;-2.020;2023-02-23T06:21:31;101310.94;;;10.57;56.53
53960;BME280;39866;48.638;-2.020;2023-02-23T06:23:57;101311.47;;;10.73;56.61
53960;BME280;39866;48.638;-2.020;2023-02-23T06:26:24;101304.19;;;10.81;56.23
53960;BME280;39866;48.638;-2.020;2023-02-23T06:28:50;101306.00;;;10.81;56.82
53960;BME280;39866;48.638;-2.020;2023-02-23T06:31:15;101314.13;;;10.73;57.05
53960;BME280;39866;48.638;-2.020;2023-02-23T06:33:40;101313.22;;;10.76;56.74
53960;BME280;39866;48.638;-2.020;2023-02-23T06:36:06;101315.94;;;10.73;56.81
53960;BME280;39866;48.638;-2.020;2023-02-23T06:38:31;101324.25;;;10.56;56.92
53960;BME280;39866;48.638;-2.020;2023-02-23T06:40:57;101310.16;;;10.51;57.26
53960;BME280;39866;48.638;-2.020;2023-02-23T06:43:22;101313.78;;;10.47;57.38
53960;BME280;39866;48.638;-2.020;2023-02-23T06:45:48;101314.97;;;10.30;57.93
53960;BME280;39866;48.638;-2.020;2023-02-23T06:48:13;101306.94;;;10.33;57.96
53960;BME280;39866;48.638;-2.020;2023-02-23T06:50:38;101305.16;;;10.32;57.55
53960;BME280;39866;48.638;-2.020;2023-02-23T06:53:04;101316.44;;;10.47;57.74
53960;BME280;39866;48.638;-2.020;2023-02-23T06:55:30;101304.91;;;10.46;57.83
53960;BME280;39866;48.638;-2.020;2023-02-23T06:57:55;101310.94;;;10.57;57.71
53960;BME280;39866;48.638;-2.020;2023-02-23T07:00:21;101327.69;;;10.62;57.67
53960;BME280;39866;48.638;-2.020;2023-02-23T07:02:47;101311.72;;;10.61;57.51
53960;BME280;39866;48.638;-2.020;2023-02-23T07:05:12;101327.44;;;10.73;57.21
53960;BME280;39866;48.638;-2.020;2023-02-23T07:07:38;101322.47;;;10.56;57.29
53960;BME280;39866;48.638;-2.020;2023-02-23T07:10:04;101328.59;;;10.60;57.66
53960;BME280;39866;48.638;-2.020;2023-02-23T07:12:30;101329.34;;;10.68;57.46
53960;BME280;39866;48.638;-2.020;2023-02-23T07:14:56;101330.94;;;10.78;57.31
53960;BME280;39866;48.638;-2.020;2023-02-23T07:17:21;101321.28;;;10.71;57.90
53960;BME280;39866;48.638;-2.020;2023-02-23T07:19:47;101330.13;;;10.73;57.83
53960;BME280;39866;48.638;-2.020;2023-02-23T07:22:12;101332.72;;;10.76;57.71
53960;BME280;39866;48.638;-2.020;2023-02-23T07:24:37;101340.13;;;10.62;58.16
53960;BME280;39866;48.638;-2.020;2023-02-23T07:27:03;101336.09;;;10.84;57.69
53960;BME280;39866;48.638;-2.020;2023-02-23T07:29:28;101342.94;;;10.98;57.56
53960;BME280;39866;48.638;-2.020;2023-02-23T07:31:54;101340.25;;;10.99;57.30
53960;BME280;39866;48.638;-2.020;2023-02-23T07:34:19;101346.25;;;11.09;57.30
53960;BME280;39866;48.638;-2.020;2023-02-23T07:36:44;101355.28;;;11.03;57.20
53960;BME280;39866;48.638;-2.020;2023-02-23T07:39:10;101355.06;;;11.12;57.54
53960;BME280;39866;48.638;-2.020;2023-02-23T07:41:37;101353.28;;;11.14;57.43
53960;BME280;39866;48.638;-2.020;2023-02-23T07:44:02;101345.28;;;11.14;57.15
53960;BME280;39866;48.638;-2.020;2023-02-23T07:46:27;101359.38;;;11.20;57.36
53960;BME280;39866;48.638;-2.020;2023-02-23T07:48:53;101361.06;;;11.22;57.43
53960;BME280;39866;48.638;-2.020;2023-02-23T07:51:18;101353.00;;;11.27;57.53
53960;BME280;39866;48.638;-2.020;2023-02-23T07:53:44;101350.25;;;11.30;57.37
53960;BME280;39866;48.638;-2.020;2023-02-23T07:56:10;101347.63;;;11.28;57.73
53960;BME280;39866;48.638;-2.020;2023-02-23T07:58:37;101351.13;;;11.30;57.78
53960;BME280;39866;48.638;-2.020;2023-02-23T08:01:03;101357.38;;;11.29;57.58
53960;BME280;39866;48.638;-2.020;2023-02-23T08:03:28;101359.94;;;11.34;57.61
53960;BME280;39866;48.638;-2.020;2023-02-23T08:05:54;101353.63;;;11.38;58.18
53960;BME280;39866;48.638;-2.020;2023-02-23T08:08:19;101351.13;;;11.30;58.40
53960;BME280;39866;48.638;-2.020;2023-02-23T08:10:44;101335.94;;;11.35;58.28
53960;BME280;39866;48.638;-2.020;2023-02-23T08:13:12;101334.25;;;11.31;58.50
53960;BME280;39866;48.638;-2.020;2023-02-23T08:15:37;101338.03;;;11.20;58.00
53960;BME280;39866;48.638;-2.020;2023-02-23T08:18:02;101331.34;;;11.00;58.33
53960;BME280;39866;48.638;-2.020;2023-02-23T08:20:30;101342.75;;;11.07;58.48
53960;BME280;39866;48.638;-2.020;2023-02-23T08:22:56;101338.81;;;11.25;58.64
53960;BME280;39866;48.638;-2.020;2023-02-23T08:25:22;101336.22;;;11.22;57.96
53960;BME280;39866;48.638;-2.020;2023-02-23T08:27:49;101332.47;;;11.30;58.04
53960;BME280;39866;48.638;-2.020;2023-02-23T08:30:21;101335.72;;;11.45;57.60
53960;BME280;39866;48.638;-2.020;2023-02-23T08:32:47;101341.03;;;11.45;57.98
53960;BME280;39866;48.638;-2.020;2023-02-23T08:35:13;101337.72;;;11.35;57.76
53960;BME280;39866;48.638;-2.020;2023-02-23T08:37:38;101340.22;;;11.41;57.93
53960;BME280;39866;48.638;-2.020;2023-02-23T08:40:06;101340.00;;;11.52;57.55
53960;BME280;39866;48.638;-2.020;2023-02-23T08:42:32;101346.09;;;11.57;57.84
53960;BME280;39866;48.638;-2.020;2023-02-23T08:44:57;101344.41;;;11.53;57.68
53960;BME280;39866;48.638;-2.020;2023-02-23T08:47:25;101334.41;;;11.62;57.83
53960;BME280;39866;48.638;-2.020;2023-02-23T08:49:51;101340.66;;;11.61;58.00
53960;BME280;39866;48.638;-2.020;2023-02-23T08:52:20;101329.63;;;11.77;57.42
53960;BME280;39866;48.638;-2.020;2023-02-23T08:54:45;101344.31;;;11.95;57.43
53960;BME280;39866;48.638;-2.020;2023-02-23T08:57:11;101341.41;;;12.04;57.19
53960;BME280;39866;48.638;-2.020;2023-02-23T08:59:36;101346.69;;;12.07;56.83
53960;BME280;39866;48.638;-2.020;2023-02-23T09:02:04;101353.75;;;12.09;56.73
53960;BME280;39866;48.638;-2.020;2023-02-23T09:04:33;101361.47;;;12.20;56.76
53960;BME280;39866;48.638;-2.020;2023-02-23T09:07:00;101360.53;;;12.23;56.51
53960;BME280;39866;48.638;-2.020;2023-02-23T09:09:25;101358.78;;;11.47;57.14
53960;BME280;39866;48.638;-2.020;2023-02-23T09:11:50;101367.59;;;11.49;58.33
53960;BME280;39866;48.638;-2.020;2023-02-23T09:14:16;101371.66;;;11.27;59.20
53960;BME280;39866;48.638;-2.020;2023-02-23T09:16:41;101375.94;;;11.34;58.89
53960;BME280;39866;48.638;-2.020;2023-02-23T09:19:09;101379.28;;;11.44;59.84
53960;BME280;39866;48.638;-2.020;2023-02-23T09:21:34;101380.06;;;11.07;60.18
53960;BME280;39866;48.638;-2.020;2023-02-23T09:24:00;101384.94;;;10.86;59.74
53960;BME280;39866;48.638;-2.020;2023-02-23T09:26:25;101384.13;;;10.81;60.83
53960;BME280;39866;48.638;-2.020;2023-02-23T09:28:54;101394.53;;;10.94;60.14
53960;BME280;39866;48.638;-2.020;2023-02-23T09:31:22;101390.41;;;10.79;60.35
53960;BME280;39866;48.638;-2.020;2023-02-23T09:33:47;101377.16;;;10.74;60.98
53960;BME280;39866;48.638;-2.020;2023-02-23T09:36:18;101375.88;;;10.95;60.74
53960;BME280;39866;48.638;-2.020;2023-02-23T09:38:46;101384.47;;;10.63;61.40
53960;BME280;39866;48.638;-2.020;2023-02-23T09:49:28;101372.34;;;10.95;61.24
53960;BME280;39866;48.638;-2.020;2023-02-23T09:51:57;101381.31;;;10.89;61.24
53960;BME280;39866;48.638;-2.020;2023-02-23T09:54:28;101386.38;;;11.03;60.17
53960;BME280;39866;48.638;-2.020;2023-02-23T09:56:54;101389.63;;;10.72;60.20
53960;BME280;39866;48.638;-2.020;2023-02-23T09:59:23;101397.03;;;11.03;59.93
53960;BME280;39866;48.638;-2.020;2023-02-23T10:01:56;101394.03;;;11.20;58.84
53960;BME280;39866;48.638;-2.020;2023-02-23T10:04:29;101406.22;;;11.31;58.96
53960;BME280;39866;48.638;-2.020;2023-02-23T10:07:12;101416.47;;;11.50;59.33
53960;BME280;39866;48.638;-2.020;2023-02-23T10:12:21;101401.59;;;11.80;58.57
53960;BME280;39866;48.638;-2.020;2023-02-23T10:15:03;101406.00;;;11.81;58.77
53960;BME280;39866;48.638;-2.020;2023-02-23T10:23:25;101406.63;;;11.94;58.00
53960;BME280;39866;48.638;-2.020;2023-02-23T10:25:54;101410.13;;;11.96;57.81
53960;BME280;39866;48.638;-2.020;2023-02-23T10:28:23;101402.59;;;11.74;58.53
53960;BME280;39866;48.638;-2.020;2023-02-23T10:30:51;101402.94;;;11.19;60.33
53960;BME280;39866;48.638;-2.020;2023-02-23T10:33:28;101404.94;;;11.49;59.56
53960;BME280;39866;48.638;-2.020;2023-02-23T10:35:59;101401.59;;;11.78;59.35
53960;BME280;39866;48.638;-2.020;2023-02-23T10:38:29;101398.00;;;11.79;59.15
53960;BME280;39866;48.638;-2.020;2023-02-23T10:40:55;101401.03;;;12.04;58.57
53960;BME280;39866;48.638;-2.020;2023-02-23T10:43:21;101392.53;;;11.88;59.01
53960;BME280;39866;48.638;-2.020;2023-02-23T10:45:50;101386.53;;;11.77;60.02
53960;BME280;39866;48.638;-2.020;2023-02-23T10:48:28;101387.47;;;12.13;58.84
53960;BME280;39866;48.638;-2.020;2023-02-23T10:50:56;101393.19;;;12.32;58.88
53960;BME280;39866;48.638;-2.020;2023-02-23T10:53:32;101400.31;;;12.33;58.16
53960;BME280;39866;48.638;-2.020;2023-02-23T10:58:26;101409.31;;;12.29;58.23
53960;BME280;39866;48.638;-2.020;2023-02-23T11:01:00;101404.56;;;12.40;57.77
53960;BME280;39866;48.638;-2.020;2023-02-23T11:06:03;101397.34;;;12.10;58.50
53960;BME280;39866;48.638;-2.020;2023-02-23T11:08:34;101388.69;;;11.99;58.49
53960;BME280;39866;48.638;-2.020;2023-02-23T11:13:45;101399.13;;;11.71;59.70
53960;BME280;39866;48.638;-2.020;2023-02-23T11:16:14;101400.97;;;11.67;60.26
53960;BME280;39866;48.638;-2.020;2023-02-23T11:18:42;101392.47;;;11.50;60.39
53960;BME280;39866;48.638;-2.020;2023-02-23T11:21:16;101398.47;;;11.61;59.92
53960;BME280;39866;48.638;-2.020;2023-02-23T11:23:44;101403.31;;;11.42;60.28
53960;BME280;39866;48.638;-2.020;2023-02-23T11:26:41;101402.59;;;11.74;60.50
53960;BME280;39866;48.638;-2.020;2023-02-23T11:29:14;101406.78;;;12.23;59.29
53960;BME280;39866;48.638;-2.020;2023-02-23T11:31:46;101400.13;;;12.05;59.06
53960;BME280;39866;48.638;-2.020;2023-02-23T11:34:21;101411.88;;;12.34;58.91
53960;BME280;39866;48.638;-2.020;2023-02-23T11:37:01;101405.28;;;12.13;58.05
53960;BME280;39866;48.638;-2.020;2023-02-23T11:39:27;101402.31;;;12.25;58.12
53960;BME280;39866;48.638;-2.020;2023-02-23T11:42:12;101399.91;;;12.49;57.73
53960;BME280;39866;48.638;-2.020;2023-02-23T11:44:38;101401.06;;;12.38;57.79
53960;BME280;39866;48.638;-2.020;2023-02-23T11:47:04;101413.28;;;12.13;58.93
53960;BME280;39866;48.638;-2.020;2023-02-23T11:49:32;101414.03;;;12.18;58.72
53960;BME280;39866;48.638;-2.020;2023-02-23T11:52:00;101416.19;;;12.02;59.16
53960;BME280;39866;48.638;-2.020;2023-02-23T11:54:31;101414.94;;;11.78;59.03
53960;BME280;39866;48.638;-2.020;2023-02-23T11:56:59;101408.84;;;11.73;58.57
53960;BME280;39866;48.638;-2.020;2023-02-23T11:59:36;101413.88;;;11.87;59.34
53960;BME280;39866;48.638;-2.020;2023-02-23T12:02:24;101378.50;;;11.77;58.23
53960;BME280;39866;48.638;-2.020;2023-02-23T12:04:53;101393.06;;;11.64;58.49
53960;BME280;39866;48.638;-2.020;2023-02-23T12:07:37;101392.19;;;11.63;58.68
53960;BME280;39866;48.638;-2.020;2023-02-23T12:10:12;101390.50;;;11.59;58.80
53960;BME280;39866;48.638;-2.020;2023-02-23T12:13:25;101390.78;;;11.46;58.85
53960;BME280;39866;48.638;-2.020;2023-02-23T12:18:10;101380.22;;;11.41;58.00
53960;BME280;39866;48.638;-2.020;2023-02-23T12:20:40;101368.81;;;11.34;57.60
53960;BME280;39866;48.638;-2.020;2023-02-23T12:23:11;101371.88;;;11.56;57.47
53960;BME280;39866;48.638;-2.020;2023-02-23T12:25:44;101366.56;;;11.55;58.22
53960;BME280;39866;48.638;-2.020;2023-02-23T12:28:36;101364.38;;;11.35;58.69
53960;BME280;39866;48.638;-2.020;2023-02-23T12:34:17;101365.91;;;11.45;59.63
53960;BME280;39866;48.638;-2.020;2023-02-23T12:36:52;101352.47;;;11.50;59.60
53960;BME280;39866;48.638;-2.020;2023-02-23T12:39:27;101352.41;;;11.92;59.56
53960;BME280;39866;48.638;-2.020;2023-02-23T12:44:54;101339.50;;;12.10;59.52
53960;BME280;39866;48.638;-2.020;2023-02-23T12:50:31;101331.91;;;11.94;60.77
53960;BME280;39866;48.638;-2.020;2023-02-23T12:53:20;101337.28;;;11.92;61.04
53960;BME280;39866;48.638;-2.020;2023-02-23T13:01:26;101335.44;;;12.30;60.97
53960;BME280;39866;48.638;-2.020;2023-02-23T13:06:27;101340.47;;;12.40;61.31
53960;BME280;39866;48.638;-2.020;2023-02-23T13:09:24;101325.41;;;12.71;60.64
53960;BME280;39866;48.638;-2.020;2023-02-23T13:15:06;101315.56;;;12.40;61.31
53960;BME280;39866;48.638;-2.020;2023-02-23T13:17:42;101310.69;;;12.23;61.80
53960;BME280;39866;48.638;-2.020;2023-02-23T13:20:24;101319.69;;;12.52;61.44
53960;BME280;39866;48.638;-2.020;2023-02-23T13:33:47;101306.56;;;12.44;61.57
53960;BME280;39866;48.638;-2.020;2023-02-23T13:36:13;101309.31;;;12.41;62.47
53960;BME280;39866;48.638;-2.020;2023-02-23T13:41:40;101306.47;;;12.47;62.09
53960;BME280;39866;48.638;-2.020;2023-02-23T13:44:23;101300.88;;;12.56;62.13
53960;BME280;39866;48.638;-2.020;2023-02-23T13:49:56;101297.13;;;12.63;62.17
53960;BME280;39866;48.638;-2.020;2023-02-23T13:52:33;101299.19;;;12.54;62.46
53960;BME280;39866;48.638;-2.020;2023-02-23T13:55:17;101297.41;;;12.53;63.21
53960;BME280;39866;48.638;-2.020;2023-02-23T13:57:49;101305.25;;;12.26;63.26
53960;BME280;39866;48.638;-2.020;2023-02-23T14:00:19;101305.25;;;12.59;62.68
53960;BME280;39866;48.638;-2.020;2023-02-23T14:02:46;101299.13;;;12.55;61.28
53960;BME280;39866;48.638;-2.020;2023-02-23T14:07:42;101295.38;;;12.30;63.44
53960;BME280;39866;48.638;-2.020;2023-02-23T14:10:18;101294.59;;;12.26;63.58
53960;BME280;39866;48.638;-2.020;2023-02-23T14:20:53;101296.47;;;12.86;62.55
53960;BME280;39866;48.638;-2.020;2023-02-23T14:25:48;101291.81;;;12.62;61.51
53960;BME280;39866;48.638;-2.020;2023-02-23T14:38:45;101290.63;;;12.41;62.16
53960;BME280;39866;48.638;-2.020;2023-02-23T14:41:10;101296.31;;;12.60;62.25
53960;BME280;39866;48.638;-2.020;2023-02-23T14:46:10;101292.28;;;12.76;60.97
53960;BME280;39866;48.638;-2.020;2023-02-23T14:48:38;101281.50;;;12.50;61.91
53960;BME280;39866;48.638;-2.020;2023-02-23T14:51:21;101287.84;;;12.46;61.83
53960;BME280;39866;48.638;-2.020;2023-02-23T14:53:48;101282.56;;;12.43;61.93
53960;BME280;39866;48.638;-2.020;2023-02-23T14:56:21;101277.31;;;12.71;61.44
53960;BME280;39866;48.638;-2.020;2023-02-23T14:58:51;101281.09;;;12.95;60.20
53960;BME280;39866;48.638;-2.020;2023-02-23T15:01:37;101268.66;;;12.62;61.36
53960;BME280;39866;48.638;-2.020;2023-02-23T15:04:11;101263.59;;;12.83;61.06